sensor_id;sensor_type;location;lat;lon;timestamp;temperature;humidity
31597;DHT22;74162;50.912;6.918;2024-02-28T00:00:09;1.90;99.90
31597;DHT22;74162;50.912;6.918;2024-02-28T00:00:42;1.90;99.90
31597;DHT22;74162;50.912;6.918;2024-02-28T00:01:16;1.90;99.90
31597;DHT22;74162;50.912;6.918;2024-02-28T00:01:49;1.90;99.90
31597;DHT22;74162;50.912;6.918;2024-02-28T00:02:21;1.90;99.90
31597;DHT22;74162;50.912;6.918;2024-02-28T00:02:53;1.90;99.90
31597;DHT22;74162;50.912;6.918;2024-02-28T00:03:25;1.90;99.90
31597;DHT22;74162;50.912;6.918;2024-02-28T00:03:56;1.90;99.90
31597;DHT22;74162;50.912;6.918;2024-02-28T00:04:29;1.90;99.90
31597;DHT22;74162;50.912;6.918;2024-02-28T00:05:00;1.90;99.90
31597;DHT22;74162;50.912;6.918;2024-02-28T00:05:32;1.90;99.90
31597;DHT22;74162;50.912;6.918;2024-02-28T00:06:04;1.90;99.90
31597;DHT22;74162;50.912;6.918;2024-02-28T00:06:36;1.90;99.90
31597;DHT22;74162;50.912;6.918;2024-02-28T00:07:08;1.90;99.90
31597;DHT22;74162;50.912;6.918;2024-02-28T00:07:40;1.90;99.90
31597;DHT22;74162;50.912;6.918;2024-02-28T00:08:12;1.90;99.90
31597;DHT22;74162;50.912;6.918;2024-02-28T00:08:44;1.90;99.90
31597;DHT22;74162;50.912;6.918;2024-02-28T00:09:16;1.80;99.90
31597;DHT22;74162;50.912;6.918;2024-02-28T00:09:49;1.80;99.90
31597;DHT22;74162;50.912;6.918;2024-02-28T00:10:21;1.80;99.90
31597;DHT22;74162;50.912;6.918;2024-02-28T00:10:53;1.80;99.90
31597;DHT22;74162;50.912;6.918;2024-02-28T00:11:25;1.80;99.90
31597;DHT22;74162;50.912;6.918;2024-02-28T00:11:57;1.80;99.90
31597;DHT22;74162;50.912;6.918;2024-02-28T00:12:29;1.70;99.90
31597;DHT22;74162;50.912;6.918;2024-02-28T00:13:01;1.80;99.90
31597;DHT22;74162;50.912;6.918;2024-02-28T00:13:33;1.80;99.90
31597;DHT22;74162;50.912;6.918;2024-02-28T00:14:07;1.80;99.90
31597;DHT22;74162;50.912;6.918;2024-02-28T00:14:40;1.80;99.90
31597;DHT22;74162;50.912;6.918;2024-02-28T00:15:12;1.80;99.90
31597;DHT22;74162;50.912;6.918;2024-02-28T00:15:45;1.80;99.90
31597;DHT22;74162;50.912;6.918;2024-02-28T00:16:17;1.90;99.90
31597;DHT22;74162;50.912;6.918;2024-02-28T00:16:48;1.80;99.90
31597;DHT22;74162;50.912;6.918;2024-02-28T00:17:20;1.90;99.90
31597;DHT22;74162;50.912;6.918;2024-02-28T00:17:53;1.90;99.90
31597;DHT22;74162;50.912;6.918;2024-02-28T00:18:26;1.90;99.90
31597;DHT22;74162;50.912;6.918;2024-02-28T00:18:58;1.90;99.90
31597;DHT22;74162;50.912;6.918;2024-02-28T00:19:30;1.90;99.90
31597;DHT22;74162;50.912;6.918;2024-02-28T00:20:01;2.00;99.90
31597;DHT22;74162;50.912;6.918;2024-02-28T00:20:33;1.90;99.90
31597;DHT22;74162;50.912;6.918;2024-02-28T00:21:05;2.00;99.90
31597;DHT22;74162;50.912;6.918;2024-02-28T00:21:37;2.00;99.90
31597;DHT22;74162;50.912;6.918;2024-02-28T00:22:09;2.00;99.90
31597;DHT22;74162;50.912;6.918;2024-02-28T00:22:41;2.00;99.90
31597;DHT22;74162;50.912;6.918;2024-02-28T00:23:13;2.00;99.90
31597;DHT22;74162;50.912;6.918;2024-02-28T00:23:45;2.10;99.90
31597;DHT22;74162;50.912;6.918;2024-02-28T00:24:17;2.10;99.90
31597;DHT22;74162;50.912;6.918;2024-02-28T00:24:50;2.10;99.90
31597;DHT22;74162;50.912;6.918;2024-02-28T00:25:23;2.10;99.90
31597;DHT22;74162;50.912;6.918;2024-02-28T00:25:54;2.10;99.90
31597;DHT22;74162;50.912;6.918;2024-02-28T00:26:26;2.10;99.90
31597;DHT22;74162;50.912;6.918;2024-02-28T00:27:02;2.20;99.90
31597;DHT22;74162;50.912;6.918;2024-02-28T00:27:35;2.10;99.90
31597;DHT22;74162;50.912;6.918;2024-02-28T00:28:07;2.20;99.90
31597;DHT22;74162;50.912;6.918;2024-02-28T00:28:38;2.20;99.90
31597;DHT22;74162;50.912;6.918;2024-02-28T00:29:10;2.20;99.90
31597;DHT22;74162;50.912;6.918;2024-02-28T00:29:42;2.20;99.90
31597;DHT22;74162;50.912;6.918;2024-02-28T00:30:14;2.20;99.90
31597;DHT22;74162;50.912;6.918;2024-02-28T00:30:48;2.20;99.90
31597;DHT22;74162;50.912;6.918;2024-02-28T00:31:20;2.20;99.90
31597;DHT22;74162;50.912;6.918;2024-02-28T00:31:54;2.20;99.90
31597;DHT22;74162;50.912;6.918;2024-02-28T00:32:26;2.20;99.90
31597;DHT22;74162;50.912;6.918;2024-02-28T00:32:59;2.20;99.90
31597;DHT22;74162;50.912;6.918;2024-02-28T00:33:32;2.30;99.90
31597;DHT22;74162;50.912;6.918;2024-02-28T00:34:04;2.30;99.90
31597;DHT22;74162;50.912;6.918;2024-02-28T00:34:36;2.30;99.90
31597;DHT22;74162;50.912;6.918;2024-02-28T00:35:08;2.30;99.90
31597;DHT22;74162;50.912;6.918;2024-02-28T00:35:40;2.40;99.90
31597;DHT22;74162;50.912;6.918;2024-02-28T00:36:13;2.30;99.90
31597;DHT22;74162;50.912;6.918;2024-02-28T00:36:45;2.30;99.90
31597;DHT22;74162;50.912;6.918;2024-02-28T00:37:27;2.40;99.90
31597;DHT22;74162;50.912;6.918;2024-02-28T00:37:59;2.30;99.90
31597;DHT22;74162;50.912;6.918;2024-02-28T00:38:33;2.30;99.90
31597;DHT22;74162;50.912;6.918;2024-02-28T00:39:05;2.40;99.90
31597;DHT22;74162;50.912;6.918;2024-02-28T00:39:37;2.40;99.90
31597;DHT22;74162;50.912;6.918;2024-02-28T00:40:12;2.40;99.90
31597;DHT22;74162;50.912;6.918;2024-02-28T00:40:44;2.40;99.90
31597;DHT22;74162;50.912;6.918;2024-02-28T00:41:15;2.40;99.90
31597;DHT22;74162;50.912;6.918;2024-02-28T00:41:47;2.50;99.90
31597;DHT22;74162;50.912;6.918;2024-02-28T00:42:19;2.50;99.90
31597;DHT22;74162;50.912;6.918;2024-02-28T00:42:51;2.50;99.90
31597;DHT22;74162;50.912;6.918;2024-02-28T00:43:23;2.50;99.90
31597;DHT22;74162;50.912;6.918;2024-02-28T00:43:55;2.50;99.90
31597;DHT22;74162;50.912;6.918;2024-02-28T00:44:27;2.50;99.90
31597;DHT22;74162;50.912;6.918;2024-02-28T00:44:59;2.50;99.90
31597;DHT22;74162;50.912;6.918;2024-02-28T00:45:31;2.50;99.90
31597;DHT22;74162;50.912;6.918;2024-02-28T00:46:03;2.60;99.90
31597;DHT22;74162;50.912;6.918;2024-02-28T00:46:35;2.50;99.90
31597;DHT22;74162;50.912;6.918;2024-02-28T00:47:10;2.60;99.90
31597;DHT22;74162;50.912;6.918;2024-02-28T00:47:42;2.60;99.90
31597;DHT22;74162;50.912;6.918;2024-02-28T00:48:14;2.60;99.90
31597;DHT22;74162;50.912;6.918;2024-02-28T00:48:46;2.60;99.90
31597;DHT22;74162;50.912;6.918;2024-02-28T00:49:18;2.60;99.90
31597;DHT22;74162;50.912;6.918;2024-02-28T00:49:50;2.60;99.90
31597;DHT22;74162;50.912;6.918;2024-02-28T00:50:22;2.70;99.90
31597;DHT22;74162;50.912;6.918;2024-02-28T00:50:54;2.70;99.90
31597;DHT22;74162;50.912;6.918;2024-02-28T00:51:25;2.70;99.90
31597;DHT22;74162;50.912;6.918;2024-02-28T00:51:57;2.70;99.90
31597;DHT22;74162;50.912;6.918;2024-02-28T00:52:29;2.70;99.90
31597;DHT22;74162;50.912;6.918;2024-02-28T00:53:02;2.70;99.90
31597;DHT22;74162;50.912;6.918;2024-02-28T00:53:34;2.80;99.90
31597;DHT22;74162;50.912;6.918;2024-02-28T00:54:06;2.80;99.90
31597;DHT22;74162;50.912;6.918;2024-02-28T00:54:38;2.80;99.90
31597;DHT22;74162;50.912;6.918;2024-02-28T00:55:11;2.90;99.90
31597;DHT22;74162;50.912;6.918;2024-02-28T00:55:43;2.90;99.90
31597;DHT22;74162;50.912;6.918;2024-02-28T00:56:15;2.90;99.90
31597;DHT22;74162;50.912;6.918;2024-02-28T00:56:50;2.90;99.90
31597;DHT22;74162;50.912;6.918;2024-02-28T00:57:22;3.00;99.90
31597;DHT22;74162;50.912;6.918;2024-02-28T00:57:54;3.00;99.90
31597;DHT22;74162;50.912;6.918;2024-02-28T00:58:26;3.00;99.90
31597;DHT22;74162;50.912;6.918;2024-02-28T00:58:58;3.00;99.90
31597;DHT22;74162;50.912;6.918;2024-02-28T00:59:33;3.00;99.90
31597;DHT22;74162;50.912;6.918;2024-02-28T01:00:06;3.00;99.90
31597;DHT22;74162;50.912;6.918;2024-02-28T01:00:40;2.90;99.90
31597;DHT22;74162;50.912;6.918;2024-02-28T01:01:12;2.90;99.90
31597;DHT22;74162;50.912;6.918;2024-02-28T01:01:44;2.90;99.90
31597;DHT22;74162;50.912;6.918;2024-02-28T01:02:16;2.90;99.90
31597;DHT22;74162;50.912;6.918;2024-02-28T01:02:48;2.90;99.90
31597;DHT22;74162;50.912;6.918;2024-02-28T01:03:20;2.90;99.90
31597;DHT22;74162;50.912;6.918;2024-02-28T01:03:52;2.90;99.90
31597;DHT22;74162;50.912;6.918;2024-02-28T01:04:24;2.90;99.90
31597;DHT22;74162;50.912;6.918;2024-02-28T01:04:56;2.90;99.90
31597;DHT22;74162;50.912;6.918;2024-02-28T01:05:28;3.00;99.90
31597;DHT22;74162;50.912;6.918;2024-02-28T01:06:00;3.00;99.90
31597;DHT22;74162;50.912;6.918;2024-02-28T01:06:32;3.00;99.90
31597;DHT22;74162;50.912;6.918;2024-02-28T01:07:04;3.00;99.90
31597;DHT22;74162;50.912;6.918;2024-02-28T01:07:36;3.00;99.90
31597;DHT22;74162;50.912;6.918;2024-02-28T01:08:07;3.00;99.90
31597;DHT22;74162;50.912;6.918;2024-02-28T01:08:39;3.00;99.90
31597;DHT22;74162;50.912;6.918;2024-02-28T01:09:13;3.00;99.90
31597;DHT22;74162;50.912;6.918;2024-02-28T01:09:45;3.00;99.90
31597;DHT22;74162;50.912;6.918;2024-02-28T01:10:18;3.00;99.90
31597;DHT22;74162;50.912;6.918;2024-02-28T01:10:50;2.90;99.90
31597;DHT22;74162;50.912;6.918;2024-02-28T01:11:22;2.90;99.90
31597;DHT22;74162;50.912;6.918;2024-02-28T01:11:54;3.00;99.90
31597;DHT22;74162;50.912;6.918;2024-02-28T01:12:26;3.00;99.90
31597;DHT22;74162;50.912;6.918;2024-02-28T01:12:58;3.00;99.90
31597;DHT22;74162;50.912;6.918;2024-02-28T01:13:33;3.00;99.90
31597;DHT22;74162;50.912;6.918;2024-02-28T01:14:05;3.00;99.90
31597;DHT22;74162;50.912;6.918;2024-02-28T01:14:37;3.00;99.90
31597;DHT22;74162;50.912;6.918;2024-02-28T01:15:09;3.10;99.90
31597;DHT22;74162;50.912;6.918;2024-02-28T01:15:41;3.10;99.90
31597;DHT22;74162;50.912;6.918;2024-02-28T01:16:13;3.10;99.90
31597;DHT22;74162;50.912;6.918;2024-02-28T01:16:45;3.10;99.90
31597;DHT22;74162;50.912;6.918;2024-02-28T01:17:17;3.10;99.90
31597;DHT22;74162;50.912;6.918;2024-02-28T01:17:49;3.10;99.90
31597;DHT22;74162;50.912;6.918;2024-02-28T01:18:21;3.20;99.90
31597;DHT22;74162;50.912;6.918;2024-02-28T01:18:53;3.20;99.90
31597;DHT22;74162;50.912;6.918;2024-02-28T01:19:25;3.20;99.90
31597;DHT22;74162;50.912;6.918;2024-02-28T01:19:57;3.20;99.90
31597;DHT22;74162;50.912;6.918;2024-02-28T01:20:29;3.20;99.90
31597;DHT22;74162;50.912;6.918;2024-02-28T01:21:01;3.20;99.90
31597;DHT22;74162;50.912;6.918;2024-02-28T01:21:33;3.20;99.90
31597;DHT22;74162;50.912;6.918;2024-02-28T01:22:05;3.20;99.90
31597;DHT22;74162;50.912;6.918;2024-02-28T01:22:40;3.20;99.90
31597;DHT22;74162;50.912;6.918;2024-02-28T01:23:12;3.20;99.90
31597;DHT22;74162;50.912;6.918;2024-02-28T01:23:44;3.20;99.90
31597;DHT22;74162;50.912;6.918;2024-02-28T01:24:16;3.20;99.90
31597;DHT22;74162;50.912;6.918;2024-02-28T01:24:48;3.20;99.90
31597;DHT22;74162;50.912;6.918;2024-02-28T01:25:21;3.20;99.90
31597;DHT22;74162;50.912;6.918;2024-02-28T01:25:53;3.20;99.90
31597;DHT22;74162;50.912;6.918;2024-02-28T01:26:25;3.20;99.90
31597;DHT22;74162;50.912;6.918;2024-02-28T01:26:56;3.30;99.90
31597;DHT22;74162;50.912;6.918;2024-02-28T01:27:28;3.30;99.90
31597;DHT22;74162;50.912;6.918;2024-02-28T01:28:00;3.30;99.90
31597;DHT22;74162;50.912;6.918;2024-02-28T01:28:32;3.30;99.90
31597;DHT22;74162;50.912;6.918;2024-02-28T01:29:04;3.30;99.90
31597;DHT22;74162;50.912;6.918;2024-02-28T01:29:36;3.30;99.90
31597;DHT22;74162;50.912;6.918;2024-02-28T01:30:08;3.30;99.90
31597;DHT22;74162;50.912;6.918;2024-02-28T01:30:41;3.30;99.90
31597;DHT22;74162;50.912;6.918;2024-02-28T01:31:13;3.30;99.90
31597;DHT22;74162;50.912;6.918;2024-02-28T01:31:45;3.30;99.90
31597;DHT22;74162;50.912;6.918;2024-02-28T01:32:17;3.30;99.90
31597;DHT22;74162;50.912;6.918;2024-02-28T01:32:49;3.30;99.90
31597;DHT22;74162;50.912;6.918;2024-02-28T01:33:21;3.30;99.90
31597;DHT22;74162;50.912;6.918;2024-02-28T01:33:53;3.30;99.90
31597;DHT22;74162;50.912;6.918;2024-02-28T01:34:25;3.30;99.90
31597;DHT22;74162;50.912;6.918;2024-02-28T01:34:57;3.30;99.90
31597;DHT22;74162;50.912;6.918;2024-02-28T01:35:29;3.30;99.90
31597;DHT22;74162;50.912;6.918;2024-02-28T01:36:01;3.30;99.90
31597;DHT22;74162;50.912;6.918;2024-02-28T01:36:33;3.40;99.90
31597;DHT22;74162;50.912;6.918;2024-02-28T01:37:05;3.30;99.90
31597;DHT22;74162;50.912;6.918;2024-02-28T01:37:37;3.40;99.90
31597;DHT22;74162;50.912;6.918;2024-02-28T01:38:09;3.40;99.90
31597;DHT22;74162;50.912;6.918;2024-02-28T01:38:41;3.40;99.90
31597;DHT22;74162;50.912;6.918;2024-02-28T01:39:14;3.40;99.90
31597;DHT22;74162;50.912;6.918;2024-02-28T01:39:46;3.40;99.90
31597;DHT22;74162;50.912;6.918;2024-02-28T01:40:18;3.40;99.90
31597;DHT22;74162;50.912;6.918;2024-02-28T01:40:51;3.40;99.90
31597;DHT22;74162;50.912;6.918;2024-02-28T01:41:23;3.40;99.90
31597;DHT22;74162;50.912;6.918;2024-02-28T01:41:55;3.50;99.90
31597;DHT22;74162;50.912;6.918;2024-02-28T01:42:27;3.50;99.90
31597;DHT22;74162;50.912;6.918;2024-02-28T01:43:02;3.40;99.90
31597;DHT22;74162;50.912;6.918;2024-02-28T01:43:35;3.40;99.90
31597;DHT22;74162;50.912;6.918;2024-02-28T01:44:06;3.30;99.90
31597;DHT22;74162;50.912;6.918;2024-02-28T01:44:43;3.30;99.90
31597;DHT22;74162;50.912;6.918;2024-02-28T01:45:16;3.30;99.90
31597;DHT22;74162;50.912;6.918;2024-02-28T01:45:49;3.30;99.90
31597;DHT22;74162;50.912;6.918;2024-02-28T01:46:23;3.30;99.90
31597;DHT22;74162;50.912;6.918;2024-02-28T01:46:57;3.20;99.90
31597;DHT22;74162;50.912;6.918;2024-02-28T01:47:29;3.20;99.90
31597;DHT22;74162;50.912;6.918;2024-02-28T01:48:02;3.20;99.90
31597;DHT22;74162;50.912;6.918;2024-02-28T01:48:35;3.20;99.90
31597;DHT22;74162;50.912;6.918;2024-02-28T01:49:06;3.10;99.90
31597;DHT22;74162;50.912;6.918;2024-02-28T01:49:39;3.10;99.90
31597;DHT22;74162;50.912;6.918;2024-02-28T01:50:12;3.10;99.90
31597;DHT22;74162;50.912;6.918;2024-02-28T01:50:44;3.10;99.90
31597;DHT22;74162;50.912;6.918;2024-02-28T01:51:17;3.20;99.90
31597;DHT22;74162;50.912;6.918;2024-02-28T01:51:50;3.20;99.90
31597;DHT22;74162;50.912;6.918;2024-02-28T01:52:22;3.20;99.90
31597;DHT22;74162;50.912;6.918;2024-02-28T01:52:54;3.10;99.90
31597;DHT22;74162;50.912;6.918;2024-02-28T01:53:26;3.20;99.90
31597;DHT22;74162;50.912;6.918;2024-02-28T01:53:59;3.10;99.90
31597;DHT22;74162;50.912;6.918;2024-02-28T01:54:31;3.10;99.90
31597;DHT22;74162;50.912;6.918;2024-02-28T01:55:05;3.10;99.90
31597;DHT22;74162;50.912;6.918;2024-02-28T01:55:38;3.10;99.90
31597;DHT22;74162;50.912;6.918;2024-02-28T01:56:12;3.10;99.90
31597;DHT22;74162;50.912;6.918;2024-02-28T01:56:45;3.20;99.90
31597;DHT22;74162;50.912;6.918;2024-02-28T01:57:18;3.20;99.90
31597;DHT22;74162;50.912;6.918;2024-02-28T01:57:50;3.20;99.90
31597;DHT22;74162;50.912;6.918;2024-02-28T01:58:23;3.10;99.90
31597;DHT22;74162;50.912;6.918;2024-02-28T01:58:55;3.20;99.90
31597;DHT22;74162;50.912;6.918;2024-02-28T01:59:29;3.20;99.90
31597;DHT22;74162;50.912;6.918;2024-02-28T02:00:03;3.20;99.90
31597;DHT22;74162;50.912;6.918;2024-02-28T02:00:37;3.20;99.90
31597;DHT22;74162;50.912;6.918;2024-02-28T02:01:09;3.20;99.90
31597;DHT22;74162;50.912;6.918;2024-02-28T02:01:42;3.20;99.90
31597;DHT22;74162;50.912;6.918;2024-02-28T02:02:14;3.20;99.90
31597;DHT22;74162;50.912;6.918;2024-02-28T02:02:46;3.20;99.90
31597;DHT22;74162;50.912;6.918;2024-02-28T02:03:18;3.30;99.90
31597;DHT22;74162;50.912;6.918;2024-02-28T02:03:51;3.20;99.90
31597;DHT22;74162;50.912;6.918;2024-02-28T02:04:23;3.20;99.90
31597;DHT22;74162;50.912;6.918;2024-02-28T02:04:55;3.20;99.90
31597;DHT22;74162;50.912;6.918;2024-02-28T02:05:27;3.20;99.90
31597;DHT22;74162;50.912;6.918;2024-02-28T02:05:59;3.20;99.90
31597;DHT22;74162;50.912;6.918;2024-02-28T02:06:31;3.20;99.90
31597;DHT22;74162;50.912;6.918;2024-02-28T02:07:04;3.10;99.90
31597;DHT22;74162;50.912;6.918;2024-02-28T02:07:38;3.20;99.90
31597;DHT22;74162;50.912;6.918;2024-02-28T02:08:10;3.10;99.90
31597;DHT22;74162;50.912;6.918;2024-02-28T02:08:42;3.10;99.90
31597;DHT22;74162;50.912;6.918;2024-02-28T02:09:14;3.10;99.90
31597;DHT22;74162;50.912;6.918;2024-02-28T02:09:46;3.10;99.90
31597;DHT22;74162;50.912;6.918;2024-02-28T02:10:18;3.20;99.90
31597;DHT22;74162;50.912;6.918;2024-02-28T02:10:49;3.20;99.90
31597;DHT22;74162;50.912;6.918;2024-02-28T02:11:23;3.20;99.90
31597;DHT22;74162;50.912;6.918;2024-02-28T02:11:55;3.20;99.90
31597;DHT22;74162;50.912;6.918;2024-02-28T02:12:27;3.20;99.90
31597;DHT22;74162;50.912;6.918;2024-02-28T02:13:04;3.20;99.90
31597;DHT22;74162;50.912;6.918;2024-02-28T02:13:47;3.20;99.90
31597;DHT22;74162;50.912;6.918;2024-02-28T02:14:19;3.20;99.90
31597;DHT22;74162;50.912;6.918;2024-02-28T02:14:51;3.30;99.90
31597;DHT22;74162;50.912;6.918;2024-02-28T02:15:23;3.30;99.90
31597;DHT22;74162;50.912;6.918;2024-02-28T02:15:55;3.30;99.90
31597;DHT22;74162;50.912;6.918;2024-02-28T02:16:27;3.40;99.90
31597;DHT22;74162;50.912;6.918;2024-02-28T02:16:59;3.40;99.90
31597;DHT22;74162;50.912;6.918;2024-02-28T02:17:31;3.40;99.90
31597;DHT22;74162;50.912;6.918;2024-02-28T02:18:03;3.40;99.90
31597;DHT22;74162;50.912;6.918;2024-02-28T02:18:36;3.50;99.90
31597;DHT22;74162;50.912;6.918;2024-02-28T02:19:08;3.50;99.90
31597;DHT22;74162;50.912;6.918;2024-02-28T02:19:41;3.60;99.90
31597;DHT22;74162;50.912;6.918;2024-02-28T02:20:14;3.50;99.90
31597;DHT22;74162;50.912;6.918;2024-02-28T02:20:50;3.40;99.90
31597;DHT22;74162;50.912;6.918;2024-02-28T02:21:28;3.40;99.90
31597;DHT22;74162;50.912;6.918;2024-02-28T02:22:03;3.40;99.90
31597;DHT22;74162;50.912;6.918;2024-02-28T02:22:38;3.40;99.90
31597;DHT22;74162;50.912;6.918;2024-02-28T02:23:10;3.40;99.90
31597;DHT22;74162;50.912;6.918;2024-02-28T02:23:43;3.50;99.90
31597;DHT22;74162;50.912;6.918;2024-02-28T02:24:15;3.40;99.90
31597;DHT22;74162;50.912;6.918;2024-02-28T02:24:47;3.40;99.90
31597;DHT22;74162;50.912;6.918;2024-02-28T02:25:19;3.40;99.90
31597;DHT22;74162;50.912;6.918;2024-02-28T02:25:51;3.40;99.90
31597;DHT22;74162;50.912;6.918;2024-02-28T02:26:23;3.40;99.90
31597;DHT22;74162;50.912;6.918;2024-02-28T02:26:57;3.40;99.90
31597;DHT22;74162;50.912;6.918;2024-02-28T02:27:29;3.40;99.90
31597;DHT22;74162;50.912;6.918;2024-02-28T02:28:02;3.40;99.90
31597;DHT22;74162;50.912;6.918;2024-02-28T02:28:34;3.40;99.90
31597;DHT22;74162;50.912;6.918;2024-02-28T02:29:06;3.40;99.90
31597;DHT22;74162;50.912;6.918;2024-02-28T02:29:38;3.30;99.90
31597;DHT22;74162;50.912;6.918;2024-02-28T02:30:11;3.40;99.90
31597;DHT22;74162;50.912;6.918;2024-02-28T02:30:43;3.30;99.90
31597;DHT22;74162;50.912;6.918;2024-02-28T02:31:15;3.30;99.90
31597;DHT22;74162;50.912;6.918;2024-02-28T02:31:47;3.30;99.90
31597;DHT22;74162;50.912;6.918;2024-02-28T02:32:19;3.40;99.90
31597;DHT22;74162;50.912;6.918;2024-02-28T02:32:51;3.40;99.90
31597;DHT22;74162;50.912;6.918;2024-02-28T02:33:23;3.50;99.90
31597;DHT22;74162;50.912;6.918;2024-02-28T02:33:55;3.50;99.90
31597;DHT22;74162;50.912;6.918;2024-02-28T02:34:27;3.50;99.90
31597;DHT22;74162;50.912;6.918;2024-02-28T02:34:59;3.50;99.90
31597;DHT22;74162;50.912;6.918;2024-02-28T02:35:31;3.50;99.90
31597;DHT22;74162;50.912;6.918;2024-02-28T02:36:03;3.50;99.90
31597;DHT22;74162;50.912;6.918;2024-02-28T02:36:36;3.50;99.90
31597;DHT22;74162;50.912;6.918;2024-02-28T02:37:08;3.50;99.90
31597;DHT22;74162;50.912;6.918;2024-02-28T02:37:44;3.40;99.90
31597;DHT22;74162;50.912;6.918;2024-02-28T02:38:16;3.40;99.90
31597;DHT22;74162;50.912;6.918;2024-02-28T02:38:48;3.40;99.90
31597;DHT22;74162;50.912;6.918;2024-02-28T02:39:20;3.40;99.90
31597;DHT22;74162;50.912;6.918;2024-02-28T02:39:52;3.40;99.90
31597;DHT22;74162;50.912;6.918;2024-02-28T02:40:25;3.40;99.90
31597;DHT22;74162;50.912;6.918;2024-02-28T02:40:57;3.40;99.90
31597;DHT22;74162;50.912;6.918;2024-02-28T02:41:28;3.40;99.90
31597;DHT22;74162;50.912;6.918;2024-02-28T02:42:00;3.40;99.90
31597;DHT22;74162;50.912;6.918;2024-02-28T02:42:32;3.40;99.90
31597;DHT22;74162;50.912;6.918;2024-02-28T02:43:04;3.40;99.90
31597;DHT22;74162;50.912;6.918;2024-02-28T02:43:36;3.40;99.90
31597;DHT22;74162;50.912;6.918;2024-02-28T02:44:08;3.40;99.90
31597;DHT22;74162;50.912;6.918;2024-02-28T02:44:41;3.40;99.90
31597;DHT22;74162;50.912;6.918;2024-02-28T02:45:13;3.40;99.90
31597;DHT22;74162;50.912;6.918;2024-02-28T02:45:46;3.40;99.90
31597;DHT22;74162;50.912;6.918;2024-02-28T02:46:18;3.50;99.90
31597;DHT22;74162;50.912;6.918;2024-02-28T02:46:49;3.50;99.90
31597;DHT22;74162;50.912;6.918;2024-02-28T02:47:21;3.40;99.90
31597;DHT22;74162;50.912;6.918;2024-02-28T02:47:53;3.50;99.90
31597;DHT22;74162;50.912;6.918;2024-02-28T02:48:25;3.50;99.90
31597;DHT22;74162;50.912;6.918;2024-02-28T02:48:57;3.50;99.90
31597;DHT22;74162;50.912;6.918;2024-02-28T02:49:29;3.50;99.90
31597;DHT22;74162;50.912;6.918;2024-02-28T02:50:01;3.50;99.90
31597;DHT22;74162;50.912;6.918;2024-02-28T02:50:33;3.50;99.90
31597;DHT22;74162;50.912;6.918;2024-02-28T02:51:05;3.50;99.90
31597;DHT22;74162;50.912;6.918;2024-02-28T02:51:37;3.50;99.90
31597;DHT22;74162;50.912;6.918;2024-02-28T02:52:09;3.50;99.90
31597;DHT22;74162;50.912;6.918;2024-02-28T02:52:41;3.60;99.90
31597;DHT22;74162;50.912;6.918;2024-02-28T02:53:14;3.60;99.90
31597;DHT22;74162;50.912;6.918;2024-02-28T02:53:46;3.60;99.90
31597;DHT22;74162;50.912;6.918;2024-02-28T02:54:18;3.60;99.90
31597;DHT22;74162;50.912;6.918;2024-02-28T02:54:49;3.60;99.90
31597;DHT22;74162;50.912;6.918;2024-02-28T02:55:21;3.60;99.90
31597;DHT22;74162;50.912;6.918;2024-02-28T02:55:53;3.70;99.90
31597;DHT22;74162;50.912;6.918;2024-02-28T02:56:25;3.70;99.90
31597;DHT22;74162;50.912;6.918;2024-02-28T02:56:57;3.60;99.90
31597;DHT22;74162;50.912;6.918;2024-02-28T02:57:29;3.60;99.90
31597;DHT22;74162;50.912;6.918;2024-02-28T02:58:01;3.70;99.90
31597;DHT22;74162;50.912;6.918;2024-02-28T02:58:33;3.60;99.90
31597;DHT22;74162;50.912;6.918;2024-02-28T02:59:05;3.60;99.90
31597;DHT22;74162;50.912;6.918;2024-02-28T02:59:36;3.50;99.90
31597;DHT22;74162;50.912;6.918;2024-02-28T03:00:09;3.50;99.90
31597;DHT22;74162;50.912;6.918;2024-02-28T03:00:42;3.50;99.90
31597;DHT22;74162;50.912;6.918;2024-02-28T03:01:14;3.60;99.90
31597;DHT22;74162;50.912;6.918;2024-02-28T03:01:46;3.60;99.90
31597;DHT22;74162;50.912;6.918;2024-02-28T03:02:19;3.60;99.90
31597;DHT22;74162;50.912;6.918;2024-02-28T03:02:51;3.60;99.90
31597;DHT22;74162;50.912;6.918;2024-02-28T03:03:23;3.60;99.90
31597;DHT22;74162;50.912;6.918;2024-02-28T03:03:55;3.60;99.90
31597;DHT22;74162;50.912;6.918;2024-02-28T03:04:26;3.60;99.90
31597;DHT22;74162;50.912;6.918;2024-02-28T03:04:58;3.60;99.90
31597;DHT22;74162;50.912;6.918;2024-02-28T03:05:30;3.60;99.90
31597;DHT22;74162;50.912;6.918;2024-02-28T03:06:03;3.70;99.90
31597;DHT22;74162;50.912;6.918;2024-02-28T03:06:35;3.70;99.90
31597;DHT22;74162;50.912;6.918;2024-02-28T03:07:07;3.70;99.90
31597;DHT22;74162;50.912;6.918;2024-02-28T03:07:39;3.70;99.90
31597;DHT22;74162;50.912;6.918;2024-02-28T03:08:11;3.70;99.90
31597;DHT22;74162;50.912;6.918;2024-02-28T03:08:44;3.70;99.90
31597;DHT22;74162;50.912;6.918;2024-02-28T03:09:16;3.80;99.90
31597;DHT22;74162;50.912;6.918;2024-02-28T03:09:48;3.80;99.90
31597;DHT22;74162;50.912;6.918;2024-02-28T03:10:20;3.80;99.90
31597;DHT22;74162;50.912;6.918;2024-02-28T03:10:52;3.80;99.90
31597;DHT22;74162;50.912;6.918;2024-02-28T03:11:23;3.80;99.90
31597;DHT22;74162;50.912;6.918;2024-02-28T03:11:55;3.70;99.90
31597;DHT22;74162;50.912;6.918;2024-02-28T03:12:27;3.70;99.90
31597;DHT22;74162;50.912;6.918;2024-02-28T03:12:59;3.70;99.90
31597;DHT22;74162;50.912;6.918;2024-02-28T03:13:31;3.80;99.90
31597;DHT22;74162;50.912;6.918;2024-02-28T03:14:03;3.80;99.90
31597;DHT22;74162;50.912;6.918;2024-02-28T03:14:35;3.70;99.90
31597;DHT22;74162;50.912;6.918;2024-02-28T03:15:07;3.70;99.90
31597;DHT22;74162;50.912;6.918;2024-02-28T03:15:40;3.70;99.90
31597;DHT22;74162;50.912;6.918;2024-02-28T03:16:12;3.70;99.90
31597;DHT22;74162;50.912;6.918;2024-02-28T03:16:43;3.70;99.90
31597;DHT22;74162;50.912;6.918;2024-02-28T03:17:16;3.70;99.90
31597;DHT22;74162;50.912;6.918;2024-02-28T03:17:47;3.70;99.90
31597;DHT22;74162;50.912;6.918;2024-02-28T03:18:19;3.80;99.90
31597;DHT22;74162;50.912;6.918;2024-02-28T03:18:51;3.80;99.90
31597;DHT22;74162;50.912;6.918;2024-02-28T03:19:23;3.80;99.90
31597;DHT22;74162;50.912;6.918;2024-02-28T03:19:55;3.80;99.90
31597;DHT22;74162;50.912;6.918;2024-02-28T03:20:27;3.80;99.90
31597;DHT22;74162;50.912;6.918;2024-02-28T03:20:59;3.80;99.90
31597;DHT22;74162;50.912;6.918;2024-02-28T03:21:31;3.80;99.90
31597;DHT22;74162;50.912;6.918;2024-02-28T03:22:03;3.70;99.90
31597;DHT22;74162;50.912;6.918;2024-02-28T03:22:35;3.70;99.90
31597;DHT22;74162;50.912;6.918;2024-02-28T03:23:07;3.70;99.90
31597;DHT22;74162;50.912;6.918;2024-02-28T03:23:39;3.70;99.90
31597;DHT22;74162;50.912;6.918;2024-02-28T03:24:12;3.70;99.90
31597;DHT22;74162;50.912;6.918;2024-02-28T03:24:44;3.60;99.90
31597;DHT22;74162;50.912;6.918;2024-02-28T03:25:16;3.60;99.90
31597;DHT22;74162;50.912;6.918;2024-02-28T03:25:48;3.60;99.90
31597;DHT22;74162;50.912;6.918;2024-02-28T03:26:20;3.60;99.90
31597;DHT22;74162;50.912;6.918;2024-02-28T03:26:52;3.70;99.90
31597;DHT22;74162;50.912;6.918;2024-02-28T03:27:24;3.70;99.90